sensor_id;sensor_type;location;lat;lon;timestamp;P1;durP1;ratioP1;P2;durP2;ratioP2
7289;SDS011;63176;52.678;13.250;2023-03-13T00:02:11;6.77;;;4.17;;
7289;SDS011;63176;52.678;13.250;2023-03-13T00:04:36;9.53;;;5.00;;
7289;SDS011;63176;52.678;13.250;2023-03-13T00:07:02;8.77;;;3.80;;
7289;SDS011;63176;52.678;13.250;2023-03-13T00:09:28;11.70;;;4.97;;
7289;SDS011;63176;52.678;13.250;2023-03-13T00:11:55;11.35;;;4.85;;
7289;SDS011;63176;52.678;13.250;2023-03-13T00:14:20;10.10;;;4.70;;
7289;SDS011;63176;52.678;13.250;2023-03-13T00:16:46;12.90;;;5.20;;
7289;SDS011;63176;52.678;13.250;2023-03-13T00:19:12;12.37;;;5.47;;
7289;SDS011;63176;52.678;13.250;2023-03-13T00:21:39;17.25;;;4.05;;
7289;SDS011;63176;52.678;13.250;2023-03-13T00:24:08;5.63;;;4.35;;
7289;SDS011;63176;52.678;13.250;2023-03-13T00:26:34;8.65;;;3.58;;
7289;SDS011;63176;52.678;13.250;2023-03-13T00:29:00;5.93;;;3.80;;
7289;SDS011;63176;52.678;13.250;2023-03-13T00:31:29;7.30;;;4.30;;
7289;SDS011;63176;52.678;13.250;2023-03-13T00:33:56;11.60;;;3.85;;
7289;SDS011;63176;52.678;13.250;2023-03-13T00:36:25;5.10;;;2.85;;
7289;SDS011;63176;52.678;13.250;2023-03-13T00:38:52;8.32;;;3.33;;
7289;SDS011;63176;52.678;13.250;2023-03-13T00:41:20;7.50;;;3.90;;
7289;SDS011;63176;52.678;13.250;2023-03-13T00:43:48;10.15;;;3.28;;
7289;SDS011;63176;52.678;13.250;2023-03-13T00:46:14;8.60;;;2.85;;
7289;SDS011;63176;52.678;13.250;2023-03-13T00:48:42;7.00;;;3.30;;
7289;SDS011;63176;52.678;13.250;2023-03-13T00:51:08;5.00;;;3.33;;
7289;SDS011;63176;52.678;13.250;2023-03-13T00:53:35;10.45;;;4.05;;
7289;SDS011;63176;52.678;13.250;2023-03-13T00:56:11;7.30;;;4.05;;
7289;SDS011;63176;52.678;13.250;2023-03-13T00:58:39;6.25;;;3.20;;
7289;SDS011;63176;52.678;13.250;2023-03-13T01:03:37;5.80;;;4.13;;
7289;SDS011;63176;52.678;13.250;2023-03-13T01:06:05;6.78;;;3.70;;
7289;SDS011;63176;52.678;13.250;2023-03-13T01:08:32;7.05;;;4.57;;
7289;SDS011;63176;52.678;13.250;2023-03-13T01:10:59;5.13;;;3.08;;
7289;SDS011;63176;52.678;13.250;2023-03-13T01:13:27;6.63;;;3.20;;
7289;SDS011;63176;52.678;13.250;2023-03-13T01:15:54;4.45;;;2.90;;
7289;SDS011;63176;52.678;13.250;2023-03-13T01:18:20;8.88;;;3.35;;
7289;SDS011;63176;52.678;13.250;2023-03-13T01:20:45;9.60;;;3.53;;
7289;SDS011;63176;52.678;13.250;2023-03-13T01:23:11;9.43;;;3.97;;
7289;SDS011;63176;52.678;13.250;2023-03-13T01:25:37;8.73;;;3.40;;
7289;SDS011;63176;52.678;13.250;2023-03-13T01:28:04;5.07;;;3.03;;
7289;SDS011;63176;52.678;13.250;2023-03-13T01:30:29;7.10;;;3.30;;
7289;SDS011;63176;52.678;13.250;2023-03-13T01:32:55;5.00;;;3.10;;
7289;SDS011;63176;52.678;13.250;2023-03-13T01:35:21;6.40;;;3.77;;
7289;SDS011;63176;52.678;13.250;2023-03-13T01:37:46;10.20;;;3.97;;
7289;SDS011;63176;52.678;13.250;2023-03-13T01:40:12;8.10;;;3.33;;
7289;SDS011;63176;52.678;13.250;2023-03-13T01:43:38;10.20;;;3.20;;
7289;SDS011;63176;52.678;13.250;2023-03-13T01:45:50;10.48;;;4.30;;
7289;SDS011;63176;52.678;13.250;2023-03-13T01:48:34;6.53;;;3.30;;
7289;SDS011;63176;52.678;13.250;2023-03-13T01:51:13;8.57;;;3.63;;
7289;SDS011;63176;52.678;13.250;2023-03-13T01:53:47;9.63;;;3.25;;
7289;SDS011;63176;52.678;13.250;2023-03-13T01:56:18;7.47;;;4.05;;
7289;SDS011;63176;52.678;13.250;2023-03-13T01:58:49;4.18;;;3.17;;
7289;SDS011;63176;52.678;13.250;2023-03-13T02:01:16;6.40;;;3.58;;
7289;SDS011;63176;52.678;13.250;2023-03-13T02:03:43;5.38;;;3.10;;
7289;SDS011;63176;52.678;13.250;2023-03-13T02:06:09;7.53;;;3.22;;
7289;SDS011;63176;52.678;13.250;2023-03-13T02:08:39;4.97;;;3.20;;
7289;SDS011;63176;52.678;13.250;2023-03-13T02:11:18;5.80;;;3.15;;
7289;SDS011;63176;52.678;13.250;2023-03-13T02:13:51;5.05;;;4.50;;
7289;SDS011;63176;52.678;13.250;2023-03-13T02:16:19;4.10;;;2.60;;
7289;SDS011;63176;52.678;13.250;2023-03-13T02:18:46;10.32;;;3.35;;
7289;SDS011;63176;52.678;13.250;2023-03-13T02:21:19;7.28;;;2.85;;
7289;SDS011;63176;52.678;13.250;2023-03-13T02:24:02;9.60;;;3.58;;
7289;SDS011;63176;52.678;13.250;2023-03-13T02:26:33;13.05;;;2.70;;
7289;SDS011;63176;52.678;13.250;2023-03-13T02:28:59;13.23;;;2.97;;
7289;SDS011;63176;52.678;13.250;2023-03-13T02:31:25;8.00;;;2.43;;
7289;SDS011;63176;52.678;13.250;2023-03-13T02:33:51;3.40;;;2.30;;
7289;SDS011;63176;52.678;13.250;2023-03-13T02:36:18;6.80;;;2.90;;
7289;SDS011;63176;52.678;13.250;2023-03-13T02:38:47;4.13;;;2.90;;
7289;SDS011;63176;52.678;13.250;2023-03-13T02:41:23;3.50;;;2.30;;
7289;SDS011;63176;52.678;13.250;2023-03-13T02:43:50;3.97;;;2.25;;
7289;SDS011;63176;52.678;13.250;2023-03-13T02:46:18;5.10;;;2.60;;
7289;SDS011;63176;52.678;13.250;2023-03-13T02:48:46;13.32;;;3.08;;
7289;SDS011;63176;52.678;13.250;2023-03-13T02:51:16;11.13;;;2.42;;
7289;SDS011;63176;52.678;13.250;2023-03-13T02:53:49;8.82;;;3.05;;
7289;SDS011;63176;52.678;13.250;2023-03-13T02:56:16;7.30;;;3.35;;
7289;SDS011;63176;52.678;13.250;2023-03-13T02:58:45;10.40;;;2.67;;
7289;SDS011;63176;52.678;13.250;2023-03-13T03:01:11;6.60;;;2.47;;
7289;SDS011;63176;52.678;13.250;2023-03-13T03:03:36;7.10;;;2.27;;
7289;SDS011;63176;52.678;13.250;2023-03-13T03:06:03;7.03;;;2.60;;
7289;SDS011;63176;52.678;13.250;2023-03-13T03:08:30;10.05;;;2.63;;
7289;SDS011;63176;52.678;13.250;2023-03-13T03:10:56;7.97;;;2.97;;
7289;SDS011;63176;52.678;13.250;2023-03-13T03:13:22;6.50;;;1.97;;
7289;SDS011;63176;52.678;13.250;2023-03-13T03:15:47;5.53;;;2.57;;
7289;SDS011;63176;52.678;13.250;2023-03-13T03:18:13;3.20;;;2.23;;
7289;SDS011;63176;52.678;13.250;2023-03-13T03:20:39;9.70;;;3.20;;
7289;SDS011;63176;52.678;13.250;2023-03-13T03:23:04;8.77;;;2.30;;
7289;SDS011;63176;52.678;13.250;2023-03-13T03:25:30;9.20;;;2.10;;
7289;SDS011;63176;52.678;13.250;2023-03-13T03:27:55;5.60;;;2.30;;
7289;SDS011;63176;52.678;13.250;2023-03-13T03:30:21;6.73;;;2.00;;
7289;SDS011;63176;52.678;13.250;2023-03-13T03:32:47;18.37;;;3.00;;
7289;SDS011;63176;52.678;13.250;2023-03-13T03:35:12;4.60;;;2.00;;
7289;SDS011;63176;52.678;13.250;2023-03-13T03:37:38;7.73;;;2.80;;
7289;SDS011;63176;52.678;13.250;2023-03-13T03:40:04;7.73;;;2.63;;
7289;SDS011;63176;52.678;13.250;2023-03-13T03:42:31;6.03;;;2.45;;
7289;SDS011;63176;52.678;13.250;2023-03-13T03:44:57;2.85;;;1.70;;
7289;SDS011;63176;52.678;13.250;2023-03-13T03:47:22;6.17;;;2.17;;
7289;SDS011;63176;52.678;13.250;2023-03-13T03:49:48;12.20;;;2.20;;
7289;SDS011;63176;52.678;13.250;2023-03-13T03:52:14;7.30;;;2.63;;
7289;SDS011;63176;52.678;13.250;2023-03-13T03:54:39;7.90;;;2.60;;
7289;SDS011;63176;52.678;13.250;2023-03-13T03:57:05;9.20;;;2.17;;
7289;SDS011;63176;52.678;13.250;2023-03-13T03:59:31;6.20;;;2.07;;
7289;SDS011;63176;52.678;13.250;2023-03-13T04:01:56;8.40;;;2.60;;
7289;SDS011;63176;52.678;13.250;2023-03-13T04:04:23;8.27;;;2.60;;
7289;SDS011;63176;52.678;13.250;2023-03-13T04:06:49;9.75;;;2.47;;
7289;SDS011;63176;52.678;13.250;2023-03-13T04:09:15;11.17;;;2.10;;
7289;SDS011;63176;52.678;13.250;2023-03-13T04:11:41;5.50;;;2.03;;
7289;SDS011;63176;52.678;13.250;2023-03-13T04:14:06;11.03;;;2.57;;
7289;SDS011;63176;52.678;13.250;2023-03-13T04:16:32;10.70;;;2.40;;
7289;SDS011;63176;52.678;13.250;2023-03-13T04:18:58;11.27;;;2.10;;
7289;SDS011;63176;52.678;13.250;2023-03-13T04:21:23;17.23;;;2.33;;
7289;SDS011;63176;52.678;13.250;2023-03-13T04:23:49;7.73;;;1.97;;
7289;SDS011;63176;52.678;13.250;2023-03-13T04:26:15;2.70;;;1.97;;
7289;SDS011;63176;52.678;13.250;2023-03-13T04:28:40;7.17;;;2.30;;
7289;SDS011;63176;52.678;13.250;2023-03-13T04:31:06;7.07;;;2.07;;
7289;SDS011;63176;52.678;13.250;2023-03-13T04:33:31;6.40;;;1.63;;
7289;SDS011;63176;52.678;13.250;2023-03-13T04:35:57;4.73;;;2.10;;
7289;SDS011;63176;52.678;13.250;2023-03-13T04:38:23;5.70;;;1.93;;
7289;SDS011;63176;52.678;13.250;2023-03-13T04:40:49;6.95;;;2.15;;
7289;SDS011;63176;52.678;13.250;2023-03-13T04:43:15;9.63;;;2.10;;
7289;SDS011;63176;52.678;13.250;2023-03-13T04:45:40;8.43;;;2.50;;
7289;SDS011;63176;52.678;13.250;2023-03-13T04:48:06;5.93;;;1.87;;
7289;SDS011;63176;52.678;13.250;2023-03-13T04:50:32;8.00;;;2.60;;
7289;SDS011;63176;52.678;13.250;2023-03-13T04:52:57;3.07;;;1.87;;
7289;SDS011;63176;52.678;13.250;2023-03-13T04:55:23;3.77;;;1.77;;
7289;SDS011;63176;52.678;13.250;2023-03-13T04:57:48;12.93;;;2.73;;
7289;SDS011;63176;52.678;13.250;2023-03-13T05:00:14;5.43;;;2.07;;
7289;SDS011;63176;52.678;13.250;2023-03-13T05:02:40;12.53;;;3.00;;
7289;SDS011;63176;52.678;13.250;2023-03-13T05:05:06;9.73;;;2.30;;
7289;SDS011;63176;52.678;13.250;2023-03-13T05:07:32;2.80;;;1.73;;
7289;SDS011;63176;52.678;13.250;2023-03-13T05:09:57;4.57;;;1.63;;
7289;SDS011;63176;52.678;13.250;2023-03-13T05:12:23;6.90;;;1.93;;
7289;SDS011;63176;52.678;13.250;2023-03-13T05:14:49;12.97;;;2.67;;
7289;SDS011;63176;52.678;13.250;2023-03-13T05:17:15;6.60;;;2.07;;
7289;SDS011;63176;52.678;13.250;2023-03-13T05:19:41;8.50;;;1.80;;
7289;SDS011;63176;52.678;13.250;2023-03-13T05:22:07;7.57;;;2.30;;
7289;SDS011;63176;52.678;13.250;2023-03-13T05:24:33;8.85;;;2.17;;
7289;SDS011;63176;52.678;13.250;2023-03-13T05:26:59;3.70;;;1.60;;
7289;SDS011;63176;52.678;13.250;2023-03-13T05:29:25;6.87;;;2.07;;
7289;SDS011;63176;52.678;13.250;2023-03-13T05:31:51;15.20;;;2.50;;
7289;SDS011;63176;52.678;13.250;2023-03-13T05:34:16;7.40;;;2.07;;
7289;SDS011;63176;52.678;13.250;2023-03-13T05:36:42;12.67;;;2.80;;
7289;SDS011;63176;52.678;13.250;2023-03-13T05:39:08;13.17;;;2.20;;
7289;SDS011;63176;52.678;13.250;2023-03-13T05:41:33;4.13;;;1.70;;
7289;SDS011;63176;52.678;13.250;2023-03-13T05:43:59;5.07;;;1.90;;
7289;SDS011;63176;52.678;13.250;2023-03-13T05:46:25;11.70;;;3.17;;
7289;SDS011;63176;52.678;13.250;2023-03-13T05:48:50;4.57;;;2.20;;
7289;SDS011;63176;52.678;13.250;2023-03-13T05:51:17;11.35;;;2.80;;
7289;SDS011;63176;52.678;13.250;2023-03-13T05:53:43;5.40;;;1.63;;
7289;SDS011;63176;52.678;13.250;2023-03-13T05:56:08;12.37;;;2.13;;
7289;SDS011;63176;52.678;13.250;2023-03-13T05:58:34;12.70;;;2.22;;
7289;SDS011;63176;52.678;13.250;2023-03-13T06:01:10;11.87;;;2.83;;
7289;SDS011;63176;52.678;13.250;2023-03-13T06:03:37;8.63;;;2.03;;
7289;SDS011;63176;52.678;13.250;2023-03-13T06:06:03;12.45;;;2.55;;
7289;SDS011;63176;52.678;13.250;2023-03-13T06:08:29;6.53;;;2.07;;
7289;SDS011;63176;52.678;13.250;2023-03-13T06:10:59;5.32;;;2.10;;
7289;SDS011;63176;52.678;13.250;2023-03-13T06:13:27;11.23;;;2.45;;
7289;SDS011;63176;52.678;13.250;2023-03-13T06:15:54;9.68;;;2.40;;
7289;SDS011;63176;52.678;13.250;2023-03-13T06:18:20;5.32;;;1.90;;
7289;SDS011;63176;52.678;13.250;2023-03-13T06:20:47;5.35;;;2.10;;
7289;SDS011;63176;52.678;13.250;2023-03-13T06:23:13;12.52;;;2.22;;
7289;SDS011;63176;52.678;13.250;2023-03-13T06:25:39;18.77;;;2.70;;
7289;SDS011;63176;52.678;13.250;2023-03-13T06:28:05;22.87;;;2.63;;
7289;SDS011;63176;52.678;13.250;2023-03-13T06:30:31;11.23;;;2.10;;
7289;SDS011;63176;52.678;13.250;2023-03-13T06:32:57;5.13;;;1.73;;
7289;SDS011;63176;52.678;13.250;2023-03-13T06:35:23;9.98;;;2.45;;
7289;SDS011;63176;52.678;13.250;2023-03-13T06:37:49;11.27;;;2.83;;
7289;SDS011;63176;52.678;13.250;2023-03-13T06:40:14;6.10;;;2.30;;
7289;SDS011;63176;52.678;13.250;2023-03-13T06:42:40;9.17;;;2.83;;
7289;SDS011;63176;52.678;13.250;2023-03-13T06:45:06;16.53;;;3.07;;
7289;SDS011;63176;52.678;13.250;2023-03-13T06:47:32;5.88;;;2.20;;
7289;SDS011;63176;52.678;13.250;2023-03-13T06:49:58;9.13;;;2.10;;
7289;SDS011;63176;52.678;13.250;2023-03-13T06:52:24;10.03;;;2.70;;
7289;SDS011;63176;52.678;13.250;2023-03-13T06:54:49;6.87;;;3.20;;
7289;SDS011;63176;52.678;13.250;2023-03-13T06:57:15;10.17;;;3.70;;
7289;SDS011;63176;52.678;13.250;2023-03-13T06:59:41;8.37;;;2.20;;
7289;SDS011;63176;52.678;13.250;2023-03-13T07:02:08;6.30;;;2.20;;
7289;SDS011;63176;52.678;13.250;2023-03-13T07:04:35;8.93;;;2.75;;
7289;SDS011;63176;52.678;13.250;2023-03-13T07:07:01;9.57;;;2.30;;
7289;SDS011;63176;52.678;13.250;2023-03-13T07:09:27;7.53;;;2.17;;
7289;SDS011;63176;52.678;13.250;2023-03-13T07:11:53;10.50;;;2.40;;
7289;SDS011;63176;52.678;13.250;2023-03-13T07:14:19;4.50;;;1.67;;
7289;SDS011;63176;52.678;13.250;2023-03-13T07:16:44;7.43;;;2.53;;
7289;SDS011;63176;52.678;13.250;2023-03-13T07:19:10;8.35;;;2.28;;
7289;SDS011;63176;52.678;13.250;2023-03-13T07:21:39;8.30;;;3.23;;
7289;SDS011;63176;52.678;13.250;2023-03-13T07:24:05;16.95;;;2.35;;
7289;SDS011;63176;52.678;13.250;2023-03-13T07:26:31;9.93;;;2.30;;
7289;SDS011;63176;52.678;13.250;2023-03-13T07:28:57;3.90;;;1.50;;
7289;SDS011;63176;52.678;13.250;2023-03-13T07:31:22;13.37;;;2.67;;
7289;SDS011;63176;52.678;13.250;2023-03-13T07:33:48;12.20;;;1.87;;
7289;SDS011;63176;52.678;13.250;2023-03-13T07:36:17;9.45;;;2.60;;
7289;SDS011;63176;52.678;13.250;2023-03-13T07:38:46;12.60;;;2.53;;
7289;SDS011;63176;52.678;13.250;2023-03-13T07:41:15;9.52;;;2.70;;
7289;SDS011;63176;52.678;13.250;2023-03-13T07:43:42;14.70;;;4.47;;
7289;SDS011;63176;52.678;13.250;2023-03-13T07:46:09;16.52;;;6.75;;
7289;SDS011;63176;52.678;13.250;2023-03-13T07:48:42;10.82;;;3.50;;
7289;SDS011;63176;52.678;13.250;2023-03-13T07:51:15;16.30;;;3.90;;
7289;SDS011;63176;52.678;13.250;2023-03-13T07:53:43;9.20;;;2.80;;
7289;SDS011;63176;52.678;13.250;2023-03-13T07:56:12;8.52;;;2.83;;
7289;SDS011;63176;52.678;13.250;2023-03-13T07:58:39;10.43;;;2.45;;
7289;SDS011;63176;52.678;13.250;2023-03-13T08:01:10;9.45;;;2.05;;
7289;SDS011;63176;52.678;13.250;2023-03-13T08:03:39;6.22;;;2.88;;
7289;SDS011;63176;52.678;13.250;2023-03-13T08:06:05;8.40;;;2.93;;
7289;SDS011;63176;52.678;13.250;2023-03-13T08:08:33;10.32;;;4.15;;
7289;SDS011;63176;52.678;13.250;2023-03-13T08:11:00;6.55;;;2.72;;
7289;SDS011;63176;52.678;13.250;2023-03-13T08:13:31;5.20;;;2.42;;
7289;SDS011;63176;52.678;13.250;2023-03-13T08:16:07;11.00;;;3.25;;
7289;SDS011;63176;52.678;13.250;2023-03-13T08:18:39;11.30;;;2.78;;
7289;SDS011;63176;52.678;13.250;2023-03-13T08:21:07;3.17;;;1.95;;
7289;SDS011;63176;52.678;13.250;2023-03-13T08:23:35;4.78;;;1.83;;
7289;SDS011;63176;52.678;13.250;2023-03-13T08:26:05;7.45;;;2.55;;
7289;SDS011;63176;52.678;13.250;2023-03-13T08:28:32;5.47;;;2.70;;
7289;SDS011;63176;52.678;13.250;2023-03-13T08:31:00;4.50;;;2.38;;
7289;SDS011;63176;52.678;13.250;2023-03-13T08:33:35;8.63;;;1.80;;
7289;SDS011;63176;52.678;13.250;2023-03-13T08:36:34;9.37;;;2.53;;
7289;SDS011;63176;52.678;13.250;2023-03-13T08:38:56;4.55;;;1.85;;
7289;SDS011;63176;52.678;13.250;2023-03-13T08:41:25;9.38;;;2.20;;
7289;SDS011;63176;52.678;13.250;2023-03-13T08:43:55;5.45;;;1.77;;
7289;SDS011;63176;52.678;13.250;2023-03-13T08:46:21;4.72;;;1.83;;
7289;SDS011;63176;52.678;13.250;2023-03-13T08:48:51;6.93;;;1.80;;
7289;SDS011;63176;52.678;13.250;2023-03-13T08:51:19;9.95;;;2.33;;
7289;SDS011;63176;52.678;13.250;2023-03-13T08:53:50;6.95;;;2.20;;
7289;SDS011;63176;52.678;13.250;2023-03-13T08:56:17;8.68;;;2.53;;
7289;SDS011;63176;52.678;13.250;2023-03-13T08:58:51;6.82;;;2.22;;
7289;SDS011;63176;52.678;13.250;2023-03-13T09:01:22;6.82;;;2.00;;
7289;SDS011;63176;52.678;13.250;2023-03-13T09:03:49;4.07;;;1.88;;
7289;SDS011;63176;52.678;13.250;2023-03-13T09:06:16;7.65;;;2.00;;
7289;SDS011;63176;52.678;13.250;2023-03-13T09:08:42;6.05;;;1.80;;
7289;SDS011;63176;52.678;13.250;2023-03-13T09:11:12;9.93;;;2.10;;
7289;SDS011;63176;52.678;13.250;2023-03-13T09:13:41;7.78;;;2.08;;
7289;SDS011;63176;52.678;13.250;2023-03-13T09:16:11;14.27;;;2.10;;
7289;SDS011;63176;52.678;13.250;2023-03-13T09:18:38;6.30;;;2.10;;
7289;SDS011;63176;52.678;13.250;2023-03-13T09:21:05;3.42;;;1.52;;
7289;SDS011;63176;52.678;13.250;2023-03-13T09:23:32;8.60;;;1.73;;
7289;SDS011;63176;52.678;13.250;2023-03-13T09:25:58;5.82;;;1.95;;
7289;SDS011;63176;52.678;13.250;2023-03-13T09:28:24;6.47;;;1.80;;
7289;SDS011;63176;52.678;13.250;2023-03-13T09:30:51;5.93;;;1.65;;
7289;SDS011;63176;52.678;13.250;2023-03-13T09:33:18;3.80;;;2.05;;
7289;SDS011;63176;52.678;13.250;2023-03-13T09:35:44;5.03;;;1.90;;
7289;SDS011;63176;52.678;13.250;2023-03-13T09:38:20;2.00;;;1.63;;
7289;SDS011;63176;52.678;13.250;2023-03-13T09:40:47;5.35;;;1.85;;
7289;SDS011;63176;52.678;13.250;2023-03-13T09:43:24;7.18;;;1.95;;
7289;SDS011;63176;52.678;13.250;2023-03-13T09:46:00;4.20;;;2.05;;
7289;SDS011;63176;52.678;13.250;2023-03-13T09:56:21;2.67;;;1.70;;
7289;SDS011;63176;52.678;13.250;2023-03-13T09:58:51;2.95;;;1.48;;
7289;SDS011;63176;52.678;13.250;2023-03-13T10:01:30;2.92;;;1.80;;
7289;SDS011;63176;52.678;13.250;2023-03-13T10:06:42;3.47;;;1.35;;
7289;SDS011;63176;52.678;13.250;2023-03-13T10:09:18;6.68;;;1.20;;
7289;SDS011;63176;52.678;13.250;2023-03-13T10:14:34;10.95;;;1.65;;
7289;SDS011;63176;52.678;13.250;2023-03-13T10:17:15;2.30;;;1.55;;
7289;SDS011;63176;52.678;13.250;2023-03-13T10:19:53;10.02;;;1.42;;
7289;SDS011;63176;52.678;13.250;2023-03-13T10:22:24;4.38;;;1.65;;
7289;SDS011;63176;52.678;13.250;2023-03-13T10:25:39;4.05;;;1.65;;
7289;SDS011;63176;52.678;13.250;2023-03-13T10:27:56;1.90;;;1.10;;
7289;SDS011;63176;52.678;13.250;2023-03-13T10:32:58;4.22;;;1.50;;
7289;SDS011;63176;52.678;13.250;2023-03-13T10:35:42;5.80;;;2.13;;
7289;SDS011;63176;52.678;13.250;2023-03-13T10:38:13;3.53;;;1.17;;
7289;SDS011;63176;52.678;13.250;2023-03-13T10:40:42;3.38;;;1.40;;
7289;SDS011;63176;52.678;13.250;2023-03-13T10:45:38;9.02;;;1.60;;
7289;SDS011;63176;52.678;13.250;2023-03-13T10:48:13;1.40;;;1.23;;
7289;SDS011;63176;52.678;13.250;2023-03-13T10:50:44;3.70;;;1.40;;
7289;SDS011;63176;52.678;13.250;2023-03-13T10:53:34;10.80;;;2.00;;
7289;SDS011;63176;52.678;13.250;2023-03-13T10:58:33;4.43;;;2.38;;
7289;SDS011;63176;52.678;13.250;2023-03-13T11:01:26;8.10;;;4.03;;
7289;SDS011;63176;52.678;13.250;2023-03-13T11:03:56;1.73;;;1.40;;
7289;SDS011;63176;52.678;13.250;2023-03-13T11:06:25;5.20;;;1.15;;
7289;SDS011;63176;52.678;13.250;2023-03-13T11:09:02;2.15;;;1.30;;
7289;SDS011;63176;52.678;13.250;2023-03-13T11:11:44;2.28;;;1.38;;
7289;SDS011;63176;52.678;13.250;2023-03-13T11:14:13;3.17;;;1.30;;
7289;SDS011;63176;52.678;13.250;2023-03-13T11:16:54;2.97;;;1.30;;
7289;SDS011;63176;52.678;13.250;2023-03-13T11:19:27;7.70;;;4.60;;
7289;SDS011;63176;52.678;13.250;2023-03-13T11:22:33;9.40;;;4.85;;
7289;SDS011;63176;52.678;13.250;2023-03-13T11:30:56;1.88;;;1.63;;
7289;SDS011;63176;52.678;13.250;2023-03-13T11:36:04;2.35;;;1.00;;
7289;SDS011;63176;52.678;13.250;2023-03-13T11:38:41;1.63;;;1.10;;
7289;SDS011;63176;52.678;13.250;2023-03-13T11:49:59;1.48;;;1.38;;
7289;SDS011;63176;52.678;13.250;2023-03-13T11:55:13;1.30;;;1.08;;
7289;SDS011;63176;52.678;13.250;2023-03-13T12:03:02;3.92;;;1.00;;
7289;SDS011;63176;52.678;13.250;2023-03-13T12:05:43;2.25;;;0.82;;
7289;SDS011;63176;52.678;13.250;2023-03-13T12:08:29;1.83;;;1.05;;
7289;SDS011;63176;52.678;13.250;2023-03-13T12:13:53;0.60;;;0.60;;
7289;SDS011;63176;52.678;13.250;2023-03-13T12:16:24;2.22;;;0.98;;
7289;SDS011;63176;52.678;13.250;2023-03-13T12:18:54;1.85;;;0.90;;
7289;SDS011;63176;52.678;13.250;2023-03-13T12:26:45;2.35;;;0.73;;
7289;SDS011;63176;52.678;13.250;2023-03-13T12:31:52;1.90;;;1.00;;
7289;SDS011;63176;52.678;13.250;2023-03-13T12:35:32;2.63;;;0.80;;
7289;SDS011;63176;52.678;13.250;2023-03-13T12:43:09;1.27;;;0.88;;
7289;SDS011;63176;52.678;13.250;2023-03-13T12:45:53;1.52;;;1.02;;
7289;SDS011;63176;52.678;13.250;2023-03-13T12:48:36;1.00;;;0.90;;
7289;SDS011;63176;52.678;13.250;2023-03-13T12:51:19;1.48;;;1.00;;
7289;SDS011;63176;52.678;13.250;2023-03-13T12:59:39;0.80;;;0.70;;
7289;SDS011;63176;52.678;13.250;2023-03-13T13:02:18;1.25;;;1.00;;
7289;SDS011;63176;52.678;13.250;2023-03-13T13:04:47;1.55;;;0.90;;
7289;SDS011;63176;52.678;13.250;2023-03-13T13:12:24;0.57;;;0.55;;
7289;SDS011;63176;52.678;13.250;2023-03-13T13:20:24;1.43;;;0.80;;
7289;SDS011;63176;52.678;13.250;2023-03-13T13:23:21;1.47;;;1.00;;
7289;SDS011;63176;52.678;13.250;2023-03-13T13:25:50;0.70;;;0.70;;
7289;SDS011;63176;52.678;13.250;2023-03-13T13:30:45;1.23;;;1.00;;
7289;SDS011;63176;52.678;13.250;2023-03-13T13:33:32;1.07;;;0.70;;
7289;SDS011;63176;52.678;13.250;2023-03-13T13:38:37;1.03;;;0.70;;
7289;SDS011;63176;52.678;13.250;2023-03-13T13:43:34;0.80;;;0.80;;
7289;SDS011;63176;52.678;13.250;2023-03-13T13:46:26;0.70;;;0.70;;
7289;SDS011;63176;52.678;13.250;2023-03-13T13:49:50;1.63;;;0.70;;
7289;SDS011;63176;52.678;13.250;2023-03-13T13:57:15;0.80;;;0.67;;
7289;SDS011;63176;52.678;13.250;2023-03-13T13:59:44;1.07;;;0.70;;
7289;SDS011;63176;52.678;13.250;2023-03-13T14:02:15;1.20;;;0.90;;
7289;SDS011;63176;52.678;13.250;2023-03-13T14:04:48;0.63;;;0.63;;
7289;SDS011;63176;52.678;13.250;2023-03-13T14:07:20;1.20;;;0.60;;
7289;SDS011;63176;52.678;13.250;2023-03-13T14:12:54;4.40;;;1.10;;
7289;SDS011;63176;52.678;13.250;2023-03-13T14:15:25;0.90;;;0.70;;
7289;SDS011;63176;52.678;13.250;2023-03-13T14:17:57;0.97;;;0.83;;
7289;SDS011;63176;52.678;13.250;2023-03-13T14:20:29;0.80;;;0.77;;
7289;SDS011;63176;52.678;13.250;2023-03-13T14:23:04;1.40;;;0.87;;
7289;SDS011;63176;52.678;13.250;2023-03-13T14:25:45;0.90;;;0.80;;
7289;SDS011;63176;52.678;13.250;2023-03-13T14:28:32;0.60;;;0.60;;
7289;SDS011;63176;52.678;13.250;2023-03-13T14:30:58;0.60;;;0.60;;
7289;SDS011;63176;52.678;13.250;2023-03-13T14:33:24;0.70;;;0.70;;
7289;SDS011;63176;52.678;13.250;2023-03-13T14:35:53;1.07;;;0.87;;
7289;SDS011;63176;52.678;13.250;2023-03-13T14:38:22;1.00;;;0.90;;
7289;SDS011;63176;52.678;13.250;2023-03-13T14:40:54;1.73;;;0.70;;
7289;SDS011;63176;52.678;13.250;2023-03-13T14:43:31;1.10;;;0.60;;
7289;SDS011;63176;52.678;13.250;2023-03-13T14:46:00;0.93;;;0.80;;
7289;SDS011;63176;52.678;13.250;2023-03-13T14:48:47;1.13;;;0.90;;
7289;SDS011;63176;52.678;13.250;2023-03-13T14:51:16;3.03;;;0.80;;
7289;SDS011;63176;52.678;13.250;2023-03-13T14:53:53;1.23;;;0.97;;
7289;SDS011;63176;52.678;13.250;2023-03-13T14:56:38;1.13;;;0.60;;
7289;SDS011;63176;52.678;13.250;2023-03-13T14:59:22;0.90;;;0.70;;
7289;SDS011;63176;52.678;13.250;2023-03-13T15:07:36;0.97;;;0.87;;
7289;SDS011;63176;52.678;13.250;2023-03-13T15:10:33;1.57;;;1.00;;
7289;SDS011;63176;52.678;13.250;2023-03-13T15:13:23;0.80;;;0.70;;
7289;SDS011;63176;52.678;13.250;2023-03-13T15:15:46;3.50;;;0.80;;
7289;SDS011;63176;52.678;13.250;2023-03-13T15:18:20;1.10;;;0.80;;
7289;SDS011;63176;52.678;13.250;2023-03-13T15:20:50;2.93;;;0.90;;
7289;SDS011;63176;52.678;13.250;2023-03-13T15:23:18;0.70;;;0.50;;
7289;SDS011;63176;52.678;13.250;2023-03-13T15:25:45;0.70;;;0.70;;
7289;SDS011;63176;52.678;13.250;2023-03-13T15:28:12;0.60;;;0.60;;
7289;SDS011;63176;52.678;13.250;2023-03-13T15:30:40;0.70;;;0.68;;
7289;SDS011;63176;52.678;13.250;2023-03-13T15:33:11;1.00;;;0.90;;
7289;SDS011;63176;52.678;13.250;2023-03-13T15:35:42;4.78;;;0.88;;
7289;SDS011;63176;52.678;13.250;2023-03-13T15:38:10;0.70;;;0.68;;
7289;SDS011;63176;52.678;13.250;2023-03-13T15:40:38;1.50;;;0.77;;
7289;SDS011;63176;52.678;13.250;2023-03-13T15:43:04;0.70;;;0.70;;
7289;SDS011;63176;52.678;13.250;2023-03-13T15:45:30;1.20;;;1.10;;
7289;SDS011;63176;52.678;13.250;2023-03-13T15:47:56;0.60;;;0.50;;
7289;SDS011;63176;52.678;13.250;2023-03-13T15:50:22;1.63;;;0.63;;
7289;SDS011;63176;52.678;13.250;2023-03-13T15:52:53;0.70;;;0.68;;
7289;SDS011;63176;52.678;13.250;2023-03-13T15:55:19;3.63;;;0.60;;
7289;SDS011;63176;52.678;13.250;2023-03-13T15:57:45;5.47;;;0.77;;
7289;SDS011;63176;52.678;13.250;2023-03-13T16:00:32;1.75;;;0.85;;
7289;SDS011;63176;52.678;13.250;2023-03-13T16:02:57;0.80;;;0.70;;
7289;SDS011;63176;52.678;13.250;2023-03-13T16:05:23;0.60;;;0.60;;
7289;SDS011;63176;52.678;13.250;2023-03-13T16:07:49;5.80;;;0.80;;
7289;SDS011;63176;52.678;13.250;2023-03-13T16:10:16;3.23;;;0.90;;
7289;SDS011;63176;52.678;13.250;2023-03-13T16:12:44;6.20;;;0.80;;
7289;SDS011;63176;52.678;13.250;2023-03-13T16:15:09;0.90;;;0.80;;
7289;SDS011;63176;52.678;13.250;2023-03-13T16:17:35;0.97;;;0.90;;
7289;SDS011;63176;52.678;13.250;2023-03-13T16:20:01;2.43;;;1.00;;
7289;SDS011;63176;52.678;13.250;2023-03-13T16:22:29;1.77;;;0.77;;
7289;SDS011;63176;52.678;13.250;2023-03-13T16:24:55;1.10;;;0.73;;
7289;SDS011;63176;52.678;13.250;2023-03-13T16:27:21;1.90;;;1.10;;
7289;SDS011;63176;52.678;13.250;2023-03-13T16:29:46;1.63;;;1.10;;
7289;SDS011;63176;52.678;13.250;2023-03-13T16:32:15;1.93;;;1.00;;
7289;SDS011;63176;52.678;13.250;2023-03-13T16:34:42;1.05;;;0.70;;
7289;SDS011;63176;52.678;13.250;2023-03-13T16:37:12;1.30;;;1.10;;
7289;SDS011;63176;52.678;13.250;2023-03-13T16:39:39;0.80;;;0.80;;
7289;SDS011;63176;52.678;13.250;2023-03-13T16:42:06;1.20;;;0.87;;
7289;SDS011;63176;52.678;13.250;2023-03-13T16:44:32;1.75;;;0.88;;